sensor_id;sensor_type;location;lat;lon;timestamp;pressure;altitude;pressure_sealevel;temperature;humidity
51526;BME280;37611;51.794;21.590;2023-07-20T00:03:56;99170.64;;;16.46;72.10
51526;BME280;37611;51.794;21.590;2023-07-20T00:07:58;99157.04;;;16.40;73.30
51526;BME280;37611;51.794;21.590;2023-07-20T00:12:00;99155.50;;;16.36;73.85
51526;BME280;37611;51.794;21.590;2023-07-20T00:16:01;99154.31;;;16.37;74.20
51526;BME280;37611;51.794;21.590;2023-07-20T00:20:03;99148.90;;;16.36;74.57
51526;BME280;37611;51.794;21.590;2023-07-20T00:24:07;99138.42;;;16.36;74.66
51526;BME280;37611;51.794;21.590;2023-07-20T00:28:08;99132.55;;;16.33;75.14
51526;BME280;37611;51.794;21.590;2023-07-20T00:32:10;99132.81;;;16.29;75.15
51526;BME280;37611;51.794;21.590;2023-07-20T00:36:12;99129.68;;;16.26;75.58
51526;BME280;37611;51.794;21.590;2023-07-20T00:40:14;99129.95;;;16.23;75.75
51526;BME280;37611;51.794;21.590;2023-07-20T00:44:15;99124.71;;;16.20;76.09
51526;BME280;37611;51.794;21.590;2023-07-20T00:48:17;99116.02;;;16.17;76.25
51526;BME280;37611;51.794;21.590;2023-07-20T00:52:23;99109.30;;;16.17;76.59
51526;BME280;37611;51.794;21.590;2023-07-20T00:56:26;99104.63;;;16.16;76.70
51526;BME280;37611;51.794;21.590;2023-07-20T01:00:28;99104.50;;;16.16;76.52
51526;BME280;37611;51.794;21.590;2023-07-20T01:04:30;99102.89;;;16.14;76.12
51526;BME280;37611;51.794;21.590;2023-07-20T01:12:52;99105.63;;;16.09;76.33
51526;BME280;37611;51.794;21.590;2023-07-20T01:16:54;99107.23;;;16.04;76.96
51526;BME280;37611;51.794;21.590;2023-07-20T01:20:59;99111.33;;;15.99;77.71
51526;BME280;37611;51.794;21.590;2023-07-20T01:33:32;99110.55;;;15.99;77.56
51526;BME280;37611;51.794;21.590;2023-07-20T01:37:35;99111.65;;;15.99;77.76
51526;BME280;37611;51.794;21.590;2023-07-20T01:41:37;99108.12;;;15.96;77.66
51526;BME280;37611;51.794;21.590;2023-07-20T01:45:40;99104.05;;;15.91;77.96
51526;BME280;37611;51.794;21.590;2023-07-20T01:49:41;99100.23;;;15.87;78.48
51526;BME280;37611;51.794;21.590;2023-07-20T01:53:43;99099.03;;;15.84;78.83
51526;BME280;37611;51.794;21.590;2023-07-20T01:57:45;99106.80;;;15.84;78.58
51526;BME280;37611;51.794;21.590;2023-07-20T02:01:46;99114.33;;;15.87;78.87
51526;BME280;37611;51.794;21.590;2023-07-20T02:05:48;99125.46;;;15.90;78.88
51526;BME280;37611;51.794;21.590;2023-07-20T02:09:50;99133.43;;;15.93;79.00
51526;BME280;37611;51.794;21.590;2023-07-20T02:13:51;99140.71;;;15.98;79.50
51526;BME280;37611;51.794;21.590;2023-07-20T02:17:53;99142.30;;;16.03;79.28
51526;BME280;37611;51.794;21.590;2023-07-20T02:21:55;99152.38;;;16.06;79.74
51526;BME280;37611;51.794;21.590;2023-07-20T02:25:56;99153.12;;;16.07;79.26
51526;BME280;37611;51.794;21.590;2023-07-20T02:29:58;99146.29;;;16.03;79.46
51526;BME280;37611;51.794;21.590;2023-07-20T02:34:00;99133.91;;;15.95;79.48
51526;BME280;37611;51.794;21.590;2023-07-20T02:38:02;99128.88;;;15.90;80.34
51526;BME280;37611;51.794;21.590;2023-07-20T02:42:05;99136.49;;;15.87;80.31
51526;BME280;37611;51.794;21.590;2023-07-20T02:46:06;99134.29;;;15.91;80.70
51526;BME280;37611;51.794;21.590;2023-07-20T02:50:08;99140.13;;;15.92;80.55
51526;BME280;37611;51.794;21.590;2023-07-20T02:54:10;99152.95;;;15.97;80.47
51526;BME280;37611;51.794;21.590;2023-07-20T02:58:12;99158.06;;;16.02;80.54
51526;BME280;37611;51.794;21.590;2023-07-20T03:02:14;99166.16;;;16.07;80.52
51526;BME280;37611;51.794;21.590;2023-07-20T03:06:16;99157.95;;;16.09;80.40
51526;BME280;37611;51.794;21.590;2023-07-20T03:10:17;99156.50;;;16.05;80.68
51526;BME280;37611;51.794;21.590;2023-07-20T03:14:19;99153.55;;;16.01;80.67
51526;BME280;37611;51.794;21.590;2023-07-20T03:18:21;99149.31;;;15.99;81.34
51526;BME280;37611;51.794;21.590;2023-07-20T03:22:23;99151.84;;;15.98;81.71
51526;BME280;37611;51.794;21.590;2023-07-20T03:26:25;99149.73;;;15.97;81.57
51526;BME280;37611;51.794;21.590;2023-07-20T03:30:27;99152.27;;;15.99;81.65
51526;BME280;37611;51.794;21.590;2023-07-20T03:34:29;99150.45;;;16.02;81.50
51526;BME280;37611;51.794;21.590;2023-07-20T03:38:30;99148.14;;;16.06;81.76
51526;BME280;37611;51.794;21.590;2023-07-20T03:42:32;99155.39;;;16.07;81.75
51526;BME280;37611;51.794;21.590;2023-07-20T03:46:34;99151.36;;;16.08;81.41
51526;BME280;37611;51.794;21.590;2023-07-20T03:50:36;99161.88;;;16.07;81.73
51526;BME280;37611;51.794;21.590;2023-07-20T03:54:37;99170.64;;;16.05;81.97
51526;BME280;37611;51.794;21.590;2023-07-20T03:58:39;99172.06;;;16.06;81.94
51526;BME280;37611;51.794;21.590;2023-07-20T04:02:40;99176.09;;;16.11;82.66
51526;BME280;37611;51.794;21.590;2023-07-20T04:06:43;99187.33;;;16.13;83.63
51526;BME280;37611;51.794;21.590;2023-07-20T04:10:46;99210.36;;;16.14;85.33
51526;BME280;37611;51.794;21.590;2023-07-20T04:14:48;99210.92;;;16.18;85.87
51526;BME280;37611;51.794;21.590;2023-07-20T04:18:49;99215.11;;;16.23;85.99
51526;BME280;37611;51.794;21.590;2023-07-20T04:22:51;99226.77;;;16.28;85.05
51526;BME280;37611;51.794;21.590;2023-07-20T04:26:53;99226.58;;;16.32;85.17
51526;BME280;37611;51.794;21.590;2023-07-20T04:30:54;99235.74;;;16.33;85.48
51526;BME280;37611;51.794;21.590;2023-07-20T04:34:56;99250.53;;;16.26;87.34
51526;BME280;37611;51.794;21.590;2023-07-20T04:38:58;99270.85;;;16.15;89.09
51526;BME280;37611;51.794;21.590;2023-07-20T04:43:00;99282.42;;;16.05;89.76
51526;BME280;37611;51.794;21.590;2023-07-20T04:47:01;99291.69;;;15.94;91.54
51526;BME280;37611;51.794;21.590;2023-07-20T04:51:04;99302.78;;;15.88;91.03
51526;BME280;37611;51.794;21.590;2023-07-20T04:55:06;99310.30;;;15.76;94.78
51526;BME280;37611;51.794;21.590;2023-07-20T04:59:08;99317.27;;;15.59;95.35
51526;BME280;37611;51.794;21.590;2023-07-20T05:03:09;99327.48;;;15.46;97.56
51526;BME280;37611;51.794;21.590;2023-07-20T05:07:11;99329.22;;;15.31;98.80
51526;BME280;37611;51.794;21.590;2023-07-20T05:11:13;99337.26;;;15.27;99.62
51526;BME280;37611;51.794;21.590;2023-07-20T05:15:15;99348.23;;;15.23;100.00
51526;BME280;37611;51.794;21.590;2023-07-20T05:19:16;99354.55;;;15.13;100.00
51526;BME280;37611;51.794;21.590;2023-07-20T05:23:18;99356.80;;;15.08;100.00
51526;BME280;37611;51.794;21.590;2023-07-20T05:27:23;99355.96;;;14.96;100.00
51526;BME280;37611;51.794;21.590;2023-07-20T05:31:24;99359.87;;;14.95;100.00
51526;BME280;37611;51.794;21.590;2023-07-20T05:35:27;99358.14;;;14.90;100.00
51526;BME280;37611;51.794;21.590;2023-07-20T05:39:29;99349.81;;;14.86;100.00
51526;BME280;37611;51.794;21.590;2023-07-20T05:43:31;99343.81;;;14.89;100.00
51526;BME280;37611;51.794;21.590;2023-07-20T05:47:33;99341.27;;;14.94;100.00
51526;BME280;37611;51.794;21.590;2023-07-20T05:51:34;99336.14;;;14.99;100.00
51526;BME280;37611;51.794;21.590;2023-07-20T05:55:36;99335.15;;;15.01;100.00
51526;BME280;37611;51.794;21.590;2023-07-20T05:59:38;99335.60;;;15.00;100.00
51526;BME280;37611;51.794;21.590;2023-07-20T06:03:39;99332.68;;;15.02;100.00
51526;BME280;37611;51.794;21.590;2023-07-20T06:07:41;99326.58;;;15.04;100.00
51526;BME280;37611;51.794;21.590;2023-07-20T06:11:43;99316.95;;;15.08;100.00
51526;BME280;37611;51.794;21.590;2023-07-20T06:15:44;99301.38;;;15.09;100.00
51526;BME280;37611;51.794;21.590;2023-07-20T06:19:46;99287.95;;;15.11;100.00
51526;BME280;37611;51.794;21.590;2023-07-20T06:23:48;99279.89;;;15.08;100.00
51526;BME280;37611;51.794;21.590;2023-07-20T06:27:50;99267.38;;;15.04;100.00
51526;BME280;37611;51.794;21.590;2023-07-20T06:31:55;99258.92;;;15.04;100.00
51526;BME280;37611;51.794;21.590;2023-07-20T06:35:57;99266.34;;;15.10;100.00
51526;BME280;37611;51.794;21.590;2023-07-20T06:39:59;99270.30;;;15.20;100.00
51526;BME280;37611;51.794;21.590;2023-07-20T06:44:01;99270.02;;;15.32;100.00
51526;BME280;37611;51.794;21.590;2023-07-20T06:48:04;99269.52;;;15.44;100.00
51526;BME280;37611;51.794;21.590;2023-07-20T06:52:06;99264.15;;;15.51;100.00
51526;BME280;37611;51.794;21.590;2023-07-20T06:56:07;99260.11;;;15.55;100.00
51526;BME280;37611;51.794;21.590;2023-07-20T07:00:10;99254.73;;;15.56;100.00
51526;BME280;37611;51.794;21.590;2023-07-20T07:04:12;99255.41;;;15.61;100.00
51526;BME280;37611;51.794;21.590;2023-07-20T07:08:14;99258.23;;;15.70;100.00
51526;BME280;37611;51.794;21.590;2023-07-20T07:12:15;99271.98;;;15.80;100.00
51526;BME280;37611;51.794;21.590;2023-07-20T07:16:17;99277.76;;;15.94;100.00
51526;BME280;37611;51.794;21.590;2023-07-20T07:20:20;99282.48;;;16.07;100.00
51526;BME280;37611;51.794;21.590;2023-07-20T07:24:22;99284.22;;;16.18;100.00
51526;BME280;37611;51.794;21.590;2023-07-20T07:28:24;99283.02;;;16.29;100.00
51526;BME280;37611;51.794;21.590;2023-07-20T07:32:25;99288.23;;;16.40;100.00
51526;BME280;37611;51.794;21.590;2023-07-20T07:36:28;99297.13;;;16.50;100.00
51526;BME280;37611;51.794;21.590;2023-07-20T07:40:29;99300.45;;;16.55;100.00
51526;BME280;37611;51.794;21.590;2023-07-20T07:44:31;99305.23;;;16.64;100.00
51526;BME280;37611;51.794;21.590;2023-07-20T07:48:33;99311.27;;;16.72;100.00
51526;BME280;37611;51.794;21.590;2023-07-20T07:52:35;99317.36;;;16.73;100.00
51526;BME280;37611;51.794;21.590;2023-07-20T07:56:36;99322.27;;;16.66;100.00
51526;BME280;37611;51.794;21.590;2023-07-20T08:00:38;99326.17;;;16.74;100.00
51526;BME280;37611;51.794;21.590;2023-07-20T08:04:40;99327.75;;;16.81;100.00
51526;BME280;37611;51.794;21.590;2023-07-20T08:08:41;99335.36;;;16.84;100.00
51526;BME280;37611;51.794;21.590;2023-07-20T08:12:46;99333.90;;;16.89;100.00
51526;BME280;37611;51.794;21.590;2023-07-20T08:16:48;99336.91;;;17.00;100.00
51526;BME280;37611;51.794;21.590;2023-07-20T08:20:49;99343.15;;;17.14;100.00
51526;BME280;37611;51.794;21.590;2023-07-20T08:24:51;99343.63;;;17.34;100.00
51526;BME280;37611;51.794;21.590;2023-07-20T08:28:53;99348.05;;;17.53;100.00
51526;BME280;37611;51.794;21.590;2023-07-20T08:32:55;99351.13;;;17.76;100.00
51526;BME280;37611;51.794;21.590;2023-07-20T08:36:57;99351.12;;;17.96;100.00
51526;BME280;37611;51.794;21.590;2023-07-20T08:40:59;99357.02;;;18.14;100.00
51526;BME280;37611;51.794;21.590;2023-07-20T08:45:07;99360.45;;;18.24;100.00
51526;BME280;37611;51.794;21.590;2023-07-20T08:49:11;99362.43;;;18.19;100.00
51526;BME280;37611;51.794;21.590;2023-07-20T08:53:13;99375.23;;;18.07;100.00
51526;BME280;37611;51.794;21.590;2023-07-20T08:57:16;99383.29;;;17.92;100.00
51526;BME280;37611;51.794;21.590;2023-07-20T09:01:19;99391.30;;;17.79;100.00
51526;BME280;37611;51.794;21.590;2023-07-20T09:05:23;99394.45;;;17.64;100.00
51526;BME280;37611;51.794;21.590;2023-07-20T09:09:26;99402.39;;;17.52;100.00
51526;BME280;37611;51.794;21.590;2023-07-20T09:13:28;99397.63;;;17.40;100.00
51526;BME280;37611;51.794;21.590;2023-07-20T09:17:29;99397.73;;;17.33;100.00
51526;BME280;37611;51.794;21.590;2023-07-20T09:21:31;99398.81;;;17.30;100.00
51526;BME280;37611;51.794;21.590;2023-07-20T09:25:33;99397.91;;;17.29;100.00
51526;BME280;37611;51.794;21.590;2023-07-20T09:29:34;99403.37;;;17.25;100.00
51526;BME280;37611;51.794;21.590;2023-07-20T09:33:38;99405.73;;;17.22;100.00
51526;BME280;37611;51.794;21.590;2023-07-20T09:42:00;99413.36;;;17.29;100.00
51526;BME280;37611;51.794;21.590;2023-07-20T09:46:03;99416.20;;;17.35;100.00
51526;BME280;37611;51.794;21.590;2023-07-20T09:50:06;99416.97;;;17.44;100.00
51526;BME280;37611;51.794;21.590;2023-07-20T09:54:13;99416.72;;;17.54;100.00
51526;BME280;37611;51.794;21.590;2023-07-20T09:58:16;99415.36;;;17.66;100.00
51526;BME280;37611;51.794;21.590;2023-07-20T10:02:25;99415.02;;;17.80;100.00
51526;BME280;37611;51.794;21.590;2023-07-20T10:06:28;99415.30;;;17.96;100.00
51526;BME280;37611;51.794;21.590;2023-07-20T10:10:33;99418.21;;;18.06;100.00
51526;BME280;37611;51.794;21.590;2023-07-20T10:14:40;99421.62;;;18.17;100.00
51526;BME280;37611;51.794;21.590;2023-07-20T10:18:59;99422.90;;;18.26;100.00
51526;BME280;37611;51.794;21.590;2023-07-20T10:23:04;99425.94;;;18.31;100.00
51526;BME280;37611;51.794;21.590;2023-07-20T10:27:07;99429.71;;;18.44;100.00
51526;BME280;37611;51.794;21.590;2023-07-20T10:31:11;99430.98;;;18.58;100.00
51526;BME280;37611;51.794;21.590;2023-07-20T10:35:17;99429.14;;;18.70;100.00
51526;BME280;37611;51.794;21.590;2023-07-20T10:39:27;99426.81;;;18.78;100.00
51526;BME280;37611;51.794;21.590;2023-07-20T10:43:29;99428.15;;;18.89;100.00
51526;BME280;37611;51.794;21.590;2023-07-20T10:47:45;99425.14;;;19.06;100.00
51526;BME280;37611;51.794;21.590;2023-07-20T10:51:48;99419.11;;;19.33;100.00
51526;BME280;37611;51.794;21.590;2023-07-20T10:56:13;99414.80;;;19.64;100.00
51526;BME280;37611;51.794;21.590;2023-07-20T11:00:19;99412.73;;;19.81;100.00
51526;BME280;37611;51.794;21.590;2023-07-20T11:04:40;99416.33;;;19.85;99.95
51526;BME280;37611;51.794;21.590;2023-07-20T11:08:42;99416.60;;;19.87;100.00
51526;BME280;37611;51.794;21.590;2023-07-20T11:13:24;99416.48;;;20.09;99.91
51526;BME280;37611;51.794;21.590;2023-07-20T11:17:31;99413.39;;;20.25;97.56
51526;BME280;37611;51.794;21.590;2023-07-20T11:21:38;99410.34;;;20.34;95.15
51526;BME280;37611;51.794;21.590;2023-07-20T11:25:42;99410.23;;;20.39;96.40
51526;BME280;37611;51.794;21.590;2023-07-20T11:29:45;99407.68;;;20.55;96.24
51526;BME280;37611;51.794;21.590;2023-07-20T11:33:46;99406.94;;;20.60;94.95
51526;BME280;37611;51.794;21.590;2023-07-20T11:37:48;99411.07;;;20.65;93.65
51526;BME280;37611;51.794;21.590;2023-07-20T11:41:52;99410.57;;;20.84;92.97
51526;BME280;37611;51.794;21.590;2023-07-20T11:45:54;99406.89;;;20.96;91.56
51526;BME280;37611;51.794;21.590;2023-07-20T11:50:03;99400.44;;;20.97;91.32
51526;BME280;37611;51.794;21.590;2023-07-20T11:54:07;99397.37;;;20.85;91.67
51526;BME280;37611;51.794;21.590;2023-07-20T11:58:09;99395.84;;;20.74;92.63
51526;BME280;37611;51.794;21.590;2023-07-20T12:02:11;99390.27;;;20.74;92.26
51526;BME280;37611;51.794;21.590;2023-07-20T12:06:13;99390.98;;;20.66;91.47
51526;BME280;37611;51.794;21.590;2023-07-20T12:10:15;99392.48;;;20.53;92.01
51526;BME280;37611;51.794;21.590;2023-07-20T12:14:17;99391.92;;;20.40;92.02
51526;BME280;37611;51.794;21.590;2023-07-20T12:18:22;99395.23;;;20.33;92.34
51526;BME280;37611;51.794;21.590;2023-07-20T12:22:24;99390.45;;;20.38;92.27
51526;BME280;37611;51.794;21.590;2023-07-20T12:26:29;99398.42;;;20.32;91.97
51526;BME280;37611;51.794;21.590;2023-07-20T12:30:31;99397.39;;;20.32;92.09
51526;BME280;37611;51.794;21.590;2023-07-20T12:34:33;99390.14;;;20.32;92.55
51526;BME280;37611;51.794;21.590;2023-07-20T12:38:35;99388.04;;;20.30;92.54
51526;BME280;37611;51.794;21.590;2023-07-20T12:42:37;99381.48;;;20.45;91.50
51526;BME280;37611;51.794;21.590;2023-07-20T12:46:39;99376.11;;;20.58;90.91
51526;BME280;37611;51.794;21.590;2023-07-20T12:50:41;99366.23;;;20.72;90.66
51526;BME280;37611;51.794;21.590;2023-07-20T12:54:43;99353.66;;;20.99;90.04
51526;BME280;37611;51.794;21.590;2023-07-20T12:58:45;99344.15;;;21.07;89.31
51526;BME280;37611;51.794;21.590;2023-07-20T13:02:47;99349.63;;;21.09;88.34
51526;BME280;37611;51.794;21.590;2023-07-20T13:06:48;99353.53;;;21.17;89.12
51526;BME280;37611;51.794;21.590;2023-07-20T13:10:50;99356.98;;;21.26;88.57
51526;BME280;37611;51.794;21.590;2023-07-20T13:14:53;99354.66;;;21.33;88.80
51526;BME280;37611;51.794;21.590;2023-07-20T13:18:55;99352.05;;;21.44;88.66
51526;BME280;37611;51.794;21.590;2023-07-20T13:22:57;99348.35;;;21.57;88.48
51526;BME280;37611;51.794;21.590;2023-07-20T13:26:59;99353.06;;;21.61;87.15
51526;BME280;37611;51.794;21.590;2023-07-20T13:31:00;99352.09;;;21.57;87.16
51526;BME280;37611;51.794;21.590;2023-07-20T13:35:02;99351.16;;;21.49;86.87
51526;BME280;37611;51.794;21.590;2023-07-20T13:39:04;99344.55;;;21.40;86.05
51526;BME280;37611;51.794;21.590;2023-07-20T13:43:06;99350.23;;;21.21;85.27
51526;BME280;37611;51.794;21.590;2023-07-20T13:47:08;99348.08;;;21.03;86.01
51526;BME280;37611;51.794;21.590;2023-07-20T13:51:10;99354.15;;;20.81;84.41
51526;BME280;37611;51.794;21.590;2023-07-20T13:55:11;99354.64;;;20.64;84.42
51526;BME280;37611;51.794;21.590;2023-07-20T13:59:13;99355.52;;;20.54;85.28
51526;BME280;37611;51.794;21.590;2023-07-20T14:03:14;99350.80;;;20.40;85.17
51526;BME280;37611;51.794;21.590;2023-07-20T14:07:16;99348.89;;;20.26;86.24
51526;BME280;37611;51.794;21.590;2023-07-20T14:11:18;99345.19;;;20.19;86.78
51526;BME280;37611;51.794;21.590;2023-07-20T14:15:20;99356.54;;;20.14;87.97
51526;BME280;37611;51.794;21.590;2023-07-20T14:19:21;99368.31;;;20.06;89.00
51526;BME280;37611;51.794;21.590;2023-07-20T14:23:23;99359.63;;;19.98;88.72
51526;BME280;37611;51.794;21.590;2023-07-20T14:27:25;99369.83;;;19.76;89.21
51526;BME280;37611;51.794;21.590;2023-07-20T14:31:27;99376.56;;;19.64;89.36
51526;BME280;37611;51.794;21.590;2023-07-20T14:35:29;99375.97;;;19.51;89.90
51526;BME280;37611;51.794;21.590;2023-07-20T14:39:31;99381.91;;;19.40;91.33
51526;BME280;37611;51.794;21.590;2023-07-20T14:43:33;99386.80;;;19.34;91.37
51526;BME280;37611;51.794;21.590;2023-07-20T14:47:34;99388.26;;;19.23;91.81
51526;BME280;37611;51.794;21.590;2023-07-20T14:51:36;99384.52;;;19.13;92.85
51526;BME280;37611;51.794;21.590;2023-07-20T14:55:44;99382.70;;;19.04;93.83
51526;BME280;37611;51.794;21.590;2023-07-20T14:59:46;99382.92;;;19.06;94.39
51526;BME280;37611;51.794;21.590;2023-07-20T15:03:48;99376.83;;;19.09;95.68
51526;BME280;37611;51.794;21.590;2023-07-20T15:07:51;99372.64;;;19.13;95.95
51526;BME280;37611;51.794;21.590;2023-07-20T15:11:53;99362.38;;;19.16;95.59
51526;BME280;37611;51.794;21.590;2023-07-20T15:15:56;99360.83;;;19.16;95.57
51526;BME280;37611;51.794;21.590;2023-07-20T15:19:58;99349.52;;;19.15;96.19
51526;BME280;37611;51.794;21.590;2023-07-20T15:24:00;99343.80;;;19.21;95.87
51526;BME280;37611;51.794;21.590;2023-07-20T15:28:02;99327.70;;;19.17;94.96
51526;BME280;37611;51.794;21.590;2023-07-20T15:32:05;99311.57;;;19.07;94.50
51526;BME280;37611;51.794;21.590;2023-07-20T15:36:14;99327.38;;;19.07;94.98
51526;BME280;37611;51.794;21.590;2023-07-20T15:40:24;99350.98;;;19.09;95.50
51526;BME280;37611;51.794;21.590;2023-07-20T15:44:29;99350.52;;;19.03;95.13
51526;BME280;37611;51.794;21.590;2023-07-20T15:48:31;99360.89;;;19.02;94.75
51526;BME280;37611;51.794;21.590;2023-07-20T15:52:33;99364.06;;;19.05;93.63
51526;BME280;37611;51.794;21.590;2023-07-20T15:56:35;99372.23;;;19.03;93.21
51526;BME280;37611;51.794;21.590;2023-07-20T16:00:36;99376.66;;;19.10;93.10
51526;BME280;37611;51.794;21.590;2023-07-20T16:04:38;99382.54;;;19.15;92.20
51526;BME280;37611;51.794;21.590;2023-07-20T16:08:43;99384.66;;;19.22;92.13
51526;BME280;37611;51.794;21.590;2023-07-20T16:12:47;99386.34;;;19.25;92.44
51526;BME280;37611;51.794;21.590;2023-07-20T16:16:49;99379.64;;;19.21;92.68
51526;BME280;37611;51.794;21.590;2023-07-20T16:20:57;99373.74;;;19.17;93.10
51526;BME280;37611;51.794;21.590;2023-07-20T16:25:03;99376.84;;;19.04;93.76
51526;BME280;37611;51.794;21.590;2023-07-20T16:29:06;99376.05;;;18.98;94.24
51526;BME280;37611;51.794;21.590;2023-07-20T16:33:09;99374.23;;;18.93;94.91
51526;BME280;37611;51.794;21.590;2023-07-20T16:37:12;99374.19;;;18.89;95.27
51526;BME280;37611;51.794;21.590;2023-07-20T16:41:18;99374.18;;;18.85;95.07
51526;BME280;37611;51.794;21.590;2023-07-20T16:45:21;99383.05;;;18.87;95.41
51526;BME280;37611;51.794;21.590;2023-07-20T16:49:23;99387.75;;;18.89;95.62
51526;BME280;37611;51.794;21.590;2023-07-20T16:53:26;99393.00;;;18.88;95.06
51526;BME280;37611;51.794;21.590;2023-07-20T16:57:28;99398.00;;;18.83;95.01
51526;BME280;37611;51.794;21.590;2023-07-20T17:01:32;99398.15;;;18.71;95.21
51526;BME280;37611;51.794;21.590;2023-07-20T17:05:35;99395.17;;;18.63;95.47
51526;BME280;37611;51.794;21.590;2023-07-20T17:09:37;99396.70;;;18.58;95.72
51526;BME280;37611;51.794;21.590;2023-07-20T17:13:38;99397.60;;;18.53;96.16
51526;BME280;37611;51.794;21.590;2023-07-20T17:17:41;99398.83;;;18.43;96.37
51526;BME280;37611;51.794;21.590;2023-07-20T17:21:43;99405.55;;;18.32;96.96
51526;BME280;37611;51.794;21.590;2023-07-20T17:25:46;99412.75;;;18.25;97.06
51526;BME280;37611;51.794;21.590;2023-07-20T17:29:48;99405.73;;;18.18;97.32
51526;BME280;37611;51.794;21.590;2023-07-20T17:33:50;99408.00;;;18.11;97.67
51526;BME280;37611;51.794;21.590;2023-07-20T17:37:52;99428.03;;;18.06;98.34
51526;BME280;37611;51.794;21.590;2023-07-20T17:41:53;99487.54;;;18.05;99.25
51526;BME280;37611;51.794;21.590;2023-07-20T17:45:55;99460.79;;;17.78;100.00
51526;BME280;37611;51.794;21.590;2023-07-20T17:49:58;99453.03;;;17.48;100.00
51526;BME280;37611;51.794;21.590;2023-07-20T17:54:00;99448.23;;;17.29;100.00
51526;BME280;37611;51.794;21.590;2023-07-20T17:58:02;99451.75;;;17.07;100.00
51526;BME280;37611;51.794;21.590;2023-07-20T18:02:05;99451.77;;;16.82;100.00
51526;BME280;37611;51.794;21.590;2023-07-20T18:06:07;99445.34;;;16.56;100.00
51526;BME280;37611;51.794;21.590;2023-07-20T18:10:09;99440.44;;;16.29;100.00
51526;BME280;37611;51.794;21.590;2023-07-20T18:14:11;99437.74;;;16.17;100.00
51526;BME280;37611;51.794;21.590;2023-07-20T18:18:13;99441.55;;;16.03;100.00
51526;BME280;37611;51.794;21.590;2023-07-20T18:22:15;99443.13;;;15.73;100.00
51526;BME280;37611;51.794;21.590;2023-07-20T18:26:17;99452.12;;;15.50;100.00
51526;BME280;37611;51.794;21.590;2023-07-20T18:30:20;99460.15;;;15.36;100.00
51526;BME280;37611;51.794;21.590;2023-07-20T18:34:22;99466.79;;;15.22;100.00
51526;BME280;37611;51.794;21.590;2023-07-20T18:38:23;99464.36;;;15.08;100.00
51526;BME280;37611;51.794;21.590;2023-07-20T18:42:25;99464.74;;;15.01;100.00
51526;BME280;37611;51.794;21.590;2023-07-20T18:46:27;99460.52;;;15.01;100.00
51526;BME280;37611;51.794;21.590;2023-07-20T18:50:28;99463.21;;;14.94;100.00
51526;BME280;37611;51.794;21.590;2023-07-20T18:54:32;99467.42;;;14.81;100.00
51526;BME280;37611;51.794;21.590;2023-07-20T18:58:33;99473.73;;;14.69;100.00
51526;BME280;37611;51.794;21.590;2023-07-20T19:02:36;99486.08;;;14.57;100.00
51526;BME280;37611;51.794;21.590;2023-07-20T19:06:38;99503.78;;;14.40;100.00
51526;BME280;37611;51.794;21.590;2023-07-20T19:10:39;99511.06;;;14.29;100.00
51526;BME280;37611;51.794;21.590;2023-07-20T19:14:41;99511.59;;;14.24;100.00
51526;BME280;37611;51.794;21.590;2023-07-20T19:18:43;99519.36;;;14.25;100.00
51526;BME280;37611;51.794;21.590;2023-07-20T19:22:45;99525.96;;;14.23;100.00
51526;BME280;37611;51.794;21.590;2023-07-20T19:26:46;99521.33;;;14.18;100.00
51526;BME280;37611;51.794;21.590;2023-07-20T19:30:49;99520.52;;;14.15;100.00
51526;BME280;37611;51.794;21.590;2023-07-20T19:34:51;99520.77;;;14.16;100.00
51526;BME280;37611;51.794;21.590;2023-07-20T19:38:53;99528.26;;;14.14;100.00
51526;BME280;37611;51.794;21.590;2023-07-20T19:42:54;99537.23;;;14.10;100.00
51526;BME280;37611;51.794;21.590;2023-07-20T19:46:56;99537.09;;;14.11;100.00
51526;BME280;37611;51.794;21.590;2023-07-20T19:50:58;99542.40;;;14.07;100.00
51526;BME280;37611;51.794;21.590;2023-07-20T19:55:00;99546.91;;;14.00;100.00
51526;BME280;37611;51.794;21.590;2023-07-20T19:59:04;99539.16;;;13.93;100.00
51526;BME280;37611;51.794;21.590;2023-07-20T20:03:07;99532.95;;;13.92;100.00
51526;BME280;37611;51.794;21.590;2023-07-20T20:07:09;99534.48;;;13.89;100.00
51526;BME280;37611;51.794;21.590;2023-07-20T20:11:13;99538.11;;;13.81;100.00
51526;BME280;37611;51.794;21.590;2023-07-20T20:15:16;99540.08;;;13.72;100.00
51526;BME280;37611;51.794;21.590;2023-07-20T20:19:19;99540.56;;;13.69;100.00
51526;BME280;37611;51.794;21.590;2023-07-20T20:23:21;99537.24;;;13.69;100.00
51526;BME280;37611;51.794;21.590;2023-07-20T20:27:23;99535.83;;;13.68;100.00
51526;BME280;37611;51.794;21.590;2023-07-20T20:31:24;99541.64;;;13.67;100.00
51526;BME280;37611;51.794;21.590;2023-07-20T20:35:26;99553.12;;;13.60;100.00
51526;BME280;37611;51.794;21.590;2023-07-20T20:39:28;99555.80;;;13.48;100.00
51526;BME280;37611;51.794;21.590;2023-07-20T20:43:30;99559.72;;;13.44;100.00
51526;BME280;37611;51.794;21.590;2023-07-20T20:47:33;99563.69;;;13.37;100.00
51526;BME280;37611;51.794;21.590;2023-07-20T20:51:36;99565.57;;;13.31;100.00
51526;BME280;37611;51.794;21.590;2023-07-20T20:55:38;99569.84;;;13.24;100.00
51526;BME280;37611;51.794;21.590;2023-07-20T20:59:40;99573.45;;;13.13;100.00
51526;BME280;37611;51.794;21.590;2023-07-20T21:03:42;99575.69;;;13.03;100.00
51526;BME280;37611;51.794;21.590;2023-07-20T21:07:44;99576.36;;;12.96;100.00
51526;BME280;37611;51.794;21.590;2023-07-20T21:11:46;99573.86;;;12.88;100.00
51526;BME280;37611;51.794;21.590;2023-07-20T21:15:51;99570.39;;;12.81;100.00
51526;BME280;37611;51.794;21.590;2023-07-20T21:19:53;99577.88;;;12.73;100.00